sensor_id;sensor_type;location;lat;lon;timestamp;temperature;humidity
30206;DHT22;17010;51.306;3.150;2023-03-13T00:00:45;10.90;99.90
30206;DHT22;17010;51.306;3.150;2023-03-13T00:03:11;11.00;99.90
30206;DHT22;17010;51.306;3.150;2023-03-13T00:05:37;11.00;99.90
30206;DHT22;17010;51.306;3.150;2023-03-13T00:08:03;11.00;99.90
30206;DHT22;17010;51.306;3.150;2023-03-13T00:10:30;11.00;99.90
30206;DHT22;17010;51.306;3.150;2023-03-13T00:12:56;11.00;99.90
30206;DHT22;17010;51.306;3.150;2023-03-13T00:15:22;11.00;99.90
30206;DHT22;17010;51.306;3.150;2023-03-13T00:17:48;11.00;99.90
30206;DHT22;17010;51.306;3.150;2023-03-13T00:20:15;11.00;99.90
30206;DHT22;17010;51.306;3.150;2023-03-13T00:22:42;11.00;99.90
30206;DHT22;17010;51.306;3.150;2023-03-13T00:25:08;11.10;99.90
30206;DHT22;17010;51.306;3.150;2023-03-13T00:27:34;11.10;99.90
30206;DHT22;17010;51.306;3.150;2023-03-13T00:30:01;11.20;99.90
30206;DHT22;17010;51.306;3.150;2023-03-13T00:32:27;11.20;99.90
30206;DHT22;17010;51.306;3.150;2023-03-13T00:34:54;11.20;99.90
30206;DHT22;17010;51.306;3.150;2023-03-13T00:37:20;11.40;99.90
30206;DHT22;17010;51.306;3.150;2023-03-13T00:39:47;11.40;99.90
30206;DHT22;17010;51.306;3.150;2023-03-13T00:42:13;11.50;99.90
30206;DHT22;17010;51.306;3.150;2023-03-13T00:44:39;11.50;99.90
30206;DHT22;17010;51.306;3.150;2023-03-13T00:47:05;11.60;99.90
30206;DHT22;17010;51.306;3.150;2023-03-13T00:49:32;11.60;99.90
30206;DHT22;17010;51.306;3.150;2023-03-13T00:51:58;11.60;99.90
30206;DHT22;17010;51.306;3.150;2023-03-13T00:54:25;11.60;99.90
30206;DHT22;17010;51.306;3.150;2023-03-13T00:56:51;11.70;99.90
30206;DHT22;17010;51.306;3.150;2023-03-13T00:59:17;11.70;99.90
30206;DHT22;17010;51.306;3.150;2023-03-13T01:01:43;11.70;99.90
30206;DHT22;17010;51.306;3.150;2023-03-13T01:04:10;11.80;99.90
30206;DHT22;17010;51.306;3.150;2023-03-13T01:06:38;11.80;99.90
30206;DHT22;17010;51.306;3.150;2023-03-13T01:09:10;11.80;99.90
30206;DHT22;17010;51.306;3.150;2023-03-13T01:11:38;11.90;99.90
30206;DHT22;17010;51.306;3.150;2023-03-13T01:14:10;11.90;99.90
30206;DHT22;17010;51.306;3.150;2023-03-13T01:16:37;11.90;99.90
30206;DHT22;17010;51.306;3.150;2023-03-13T01:19:05;11.90;99.90
30206;DHT22;17010;51.306;3.150;2023-03-13T01:21:32;12.00;99.90
30206;DHT22;17010;51.306;3.150;2023-03-13T01:24:00;12.00;99.90
30206;DHT22;17010;51.306;3.150;2023-03-13T01:26:26;12.00;99.90
30206;DHT22;17010;51.306;3.150;2023-03-13T01:28:53;12.10;99.90
30206;DHT22;17010;51.306;3.150;2023-03-13T01:31:33;12.00;99.90
30206;DHT22;17010;51.306;3.150;2023-03-13T01:34:02;12.10;99.90
30206;DHT22;17010;51.306;3.150;2023-03-13T01:36:28;12.10;99.90
30206;DHT22;17010;51.306;3.150;2023-03-13T01:38:56;12.10;99.90
30206;DHT22;17010;51.306;3.150;2023-03-13T01:41:24;12.20;99.90
30206;DHT22;17010;51.306;3.150;2023-03-13T01:43:51;12.20;99.90
30206;DHT22;17010;51.306;3.150;2023-03-13T01:46:19;12.20;99.90
30206;DHT22;17010;51.306;3.150;2023-03-13T01:49:06;12.20;99.90
30206;DHT22;17010;51.306;3.150;2023-03-13T01:51:52;12.30;99.90
30206;DHT22;17010;51.306;3.150;2023-03-13T01:54:24;12.30;99.90
30206;DHT22;17010;51.306;3.150;2023-03-13T02:00:04;12.30;99.90
30206;DHT22;17010;51.306;3.150;2023-03-13T02:02:36;12.30;99.90
30206;DHT22;17010;51.306;3.150;2023-03-13T02:05:03;12.30;99.90
30206;DHT22;17010;51.306;3.150;2023-03-13T02:07:40;12.30;99.90
30206;DHT22;17010;51.306;3.150;2023-03-13T02:10:08;12.40;99.90
30206;DHT22;17010;51.306;3.150;2023-03-13T02:12:39;12.40;99.90
30206;DHT22;17010;51.306;3.150;2023-03-13T02:15:09;12.50;99.90
30206;DHT22;17010;51.306;3.150;2023-03-13T02:17:37;12.40;99.90
30206;DHT22;17010;51.306;3.150;2023-03-13T02:20:04;12.50;99.90
30206;DHT22;17010;51.306;3.150;2023-03-13T02:25:17;12.50;99.90
30206;DHT22;17010;51.306;3.150;2023-03-13T02:27:47;12.50;99.90
30206;DHT22;17010;51.306;3.150;2023-03-13T02:30:13;12.50;99.90
30206;DHT22;17010;51.306;3.150;2023-03-13T02:32:40;12.60;99.90
30206;DHT22;17010;51.306;3.150;2023-03-13T02:35:09;12.60;99.90
30206;DHT22;17010;51.306;3.150;2023-03-13T02:37:36;12.70;99.90
30206;DHT22;17010;51.306;3.150;2023-03-13T02:40:06;12.70;99.90
30206;DHT22;17010;51.306;3.150;2023-03-13T02:42:37;12.80;99.90
30206;DHT22;17010;51.306;3.150;2023-03-13T02:45:04;12.80;99.90
30206;DHT22;17010;51.306;3.150;2023-03-13T02:47:31;12.80;99.90
30206;DHT22;17010;51.306;3.150;2023-03-13T02:49:57;12.80;99.90
30206;DHT22;17010;51.306;3.150;2023-03-13T02:52:29;12.80;99.90
30206;DHT22;17010;51.306;3.150;2023-03-13T02:55:01;12.90;99.90
30206;DHT22;17010;51.306;3.150;2023-03-13T02:57:29;12.90;99.90
30206;DHT22;17010;51.306;3.150;2023-03-13T02:59:56;12.90;99.90
30206;DHT22;17010;51.306;3.150;2023-03-13T03:02:23;12.90;99.90
30206;DHT22;17010;51.306;3.150;2023-03-13T03:04:49;12.90;99.90
30206;DHT22;17010;51.306;3.150;2023-03-13T03:07:17;12.90;99.90
30206;DHT22;17010;51.306;3.150;2023-03-13T03:09:43;12.90;99.90
30206;DHT22;17010;51.306;3.150;2023-03-13T03:12:10;12.90;99.90
30206;DHT22;17010;51.306;3.150;2023-03-13T03:14:36;12.90;99.90
30206;DHT22;17010;51.306;3.150;2023-03-13T03:17:02;12.80;99.90
30206;DHT22;17010;51.306;3.150;2023-03-13T03:19:29;12.80;99.90
30206;DHT22;17010;51.306;3.150;2023-03-13T03:21:55;12.90;99.90
30206;DHT22;17010;51.306;3.150;2023-03-13T03:24:21;12.90;99.90
30206;DHT22;17010;51.306;3.150;2023-03-13T03:26:47;12.90;99.90
30206;DHT22;17010;51.306;3.150;2023-03-13T03:29:14;12.80;99.90
30206;DHT22;17010;51.306;3.150;2023-03-13T03:31:40;12.90;99.90
30206;DHT22;17010;51.306;3.150;2023-03-13T03:34:06;12.90;99.90
30206;DHT22;17010;51.306;3.150;2023-03-13T03:36:32;13.00;99.90
30206;DHT22;17010;51.306;3.150;2023-03-13T03:38:58;13.00;99.90
30206;DHT22;17010;51.306;3.150;2023-03-13T03:41:25;13.00;99.90
30206;DHT22;17010;51.306;3.150;2023-03-13T03:43:51;13.00;99.90
30206;DHT22;17010;51.306;3.150;2023-03-13T03:46:17;13.10;99.90
30206;DHT22;17010;51.306;3.150;2023-03-13T03:48:43;13.00;99.90
30206;DHT22;17010;51.306;3.150;2023-03-13T03:51:10;13.00;99.90
30206;DHT22;17010;51.306;3.150;2023-03-13T03:53:36;13.00;99.90
30206;DHT22;17010;51.306;3.150;2023-03-13T03:56:09;13.00;99.90
30206;DHT22;17010;51.306;3.150;2023-03-13T03:58:35;13.00;99.90
30206;DHT22;17010;51.306;3.150;2023-03-13T04:01:01;13.00;99.90
30206;DHT22;17010;51.306;3.150;2023-03-13T04:03:27;12.90;99.90
30206;DHT22;17010;51.306;3.150;2023-03-13T04:05:54;13.00;99.90
30206;DHT22;17010;51.306;3.150;2023-03-13T04:08:20;13.00;99.90
30206;DHT22;17010;51.306;3.150;2023-03-13T04:10:46;12.90;99.90
30206;DHT22;17010;51.306;3.150;2023-03-13T04:13:13;13.00;99.90
30206;DHT22;17010;51.306;3.150;2023-03-13T04:15:39;13.00;99.90
30206;DHT22;17010;51.306;3.150;2023-03-13T04:18:05;13.00;99.90
30206;DHT22;17010;51.306;3.150;2023-03-13T04:20:32;13.00;99.90
30206;DHT22;17010;51.306;3.150;2023-03-13T04:22:58;13.00;99.90
30206;DHT22;17010;51.306;3.150;2023-03-13T04:25:25;13.00;99.90
30206;DHT22;17010;51.306;3.150;2023-03-13T04:27:51;13.00;99.90
30206;DHT22;17010;51.306;3.150;2023-03-13T04:30:17;13.00;99.90
30206;DHT22;17010;51.306;3.150;2023-03-13T04:32:43;13.00;99.90
30206;DHT22;17010;51.306;3.150;2023-03-13T04:35:10;13.00;99.90
30206;DHT22;17010;51.306;3.150;2023-03-13T04:37:36;13.00;99.90
30206;DHT22;17010;51.306;3.150;2023-03-13T04:40:03;13.00;99.90
30206;DHT22;17010;51.306;3.150;2023-03-13T04:42:30;12.90;99.90
30206;DHT22;17010;51.306;3.150;2023-03-13T04:44:56;12.90;99.90
30206;DHT22;17010;51.306;3.150;2023-03-13T04:47:22;13.00;99.90
30206;DHT22;17010;51.306;3.150;2023-03-13T04:49:48;13.00;99.90
30206;DHT22;17010;51.306;3.150;2023-03-13T04:52:15;13.10;99.90
30206;DHT22;17010;51.306;3.150;2023-03-13T04:54:41;13.10;99.90
30206;DHT22;17010;51.306;3.150;2023-03-13T04:57:07;13.10;99.90
30206;DHT22;17010;51.306;3.150;2023-03-13T04:59:33;13.00;99.90
30206;DHT22;17010;51.306;3.150;2023-03-13T05:02:00;13.00;99.90
30206;DHT22;17010;51.306;3.150;2023-03-13T05:04:26;13.10;99.90
30206;DHT22;17010;51.306;3.150;2023-03-13T05:06:52;13.00;99.90
30206;DHT22;17010;51.306;3.150;2023-03-13T05:09:18;13.10;99.90
30206;DHT22;17010;51.306;3.150;2023-03-13T05:11:45;13.10;99.90
30206;DHT22;17010;51.306;3.150;2023-03-13T05:14:11;13.00;99.90
30206;DHT22;17010;51.306;3.150;2023-03-13T05:16:37;13.10;99.90
30206;DHT22;17010;51.306;3.150;2023-03-13T05:19:04;13.10;99.90
30206;DHT22;17010;51.306;3.150;2023-03-13T05:21:30;13.10;99.90
30206;DHT22;17010;51.306;3.150;2023-03-13T05:23:56;13.10;99.90
30206;DHT22;17010;51.306;3.150;2023-03-13T05:26:22;13.10;99.90
30206;DHT22;17010;51.306;3.150;2023-03-13T05:28:49;13.10;99.90
30206;DHT22;17010;51.306;3.150;2023-03-13T05:31:15;13.10;99.90
30206;DHT22;17010;51.306;3.150;2023-03-13T05:33:41;13.00;99.90
30206;DHT22;17010;51.306;3.150;2023-03-13T05:36:07;13.00;99.90
30206;DHT22;17010;51.306;3.150;2023-03-13T05:38:34;13.00;99.90
30206;DHT22;17010;51.306;3.150;2023-03-13T05:41:00;12.90;99.90
30206;DHT22;17010;51.306;3.150;2023-03-13T05:43:26;12.90;99.90
30206;DHT22;17010;51.306;3.150;2023-03-13T05:45:52;12.90;99.90
30206;DHT22;17010;51.306;3.150;2023-03-13T05:48:18;12.90;99.90
30206;DHT22;17010;51.306;3.150;2023-03-13T05:50:44;12.80;99.90
30206;DHT22;17010;51.306;3.150;2023-03-13T05:53:12;12.80;99.90
30206;DHT22;17010;51.306;3.150;2023-03-13T05:55:38;12.80;99.90
30206;DHT22;17010;51.306;3.150;2023-03-13T05:58:04;12.70;99.90
30206;DHT22;17010;51.306;3.150;2023-03-13T06:00:30;12.70;99.90
30206;DHT22;17010;51.306;3.150;2023-03-13T06:02:57;12.60;99.90
30206;DHT22;17010;51.306;3.150;2023-03-13T06:05:23;12.60;99.90
30206;DHT22;17010;51.306;3.150;2023-03-13T06:07:55;12.60;99.90
30206;DHT22;17010;51.306;3.150;2023-03-13T06:10:25;12.60;99.90
30206;DHT22;17010;51.306;3.150;2023-03-13T06:12:58;12.60;99.90
30206;DHT22;17010;51.306;3.150;2023-03-13T06:15:25;12.50;99.90
30206;DHT22;17010;51.306;3.150;2023-03-13T06:17:51;12.50;99.90
30206;DHT22;17010;51.306;3.150;2023-03-13T06:20:17;12.50;99.90
30206;DHT22;17010;51.306;3.150;2023-03-13T06:22:43;12.50;99.90
30206;DHT22;17010;51.306;3.150;2023-03-13T06:25:10;12.50;99.90
30206;DHT22;17010;51.306;3.150;2023-03-13T06:27:36;12.50;99.90
30206;DHT22;17010;51.306;3.150;2023-03-13T06:30:07;12.60;99.90
30206;DHT22;17010;51.306;3.150;2023-03-13T06:32:34;12.60;99.90
30206;DHT22;17010;51.306;3.150;2023-03-13T06:35:01;12.60;99.90
30206;DHT22;17010;51.306;3.150;2023-03-13T06:37:27;12.60;99.90
30206;DHT22;17010;51.306;3.150;2023-03-13T06:39:53;12.60;99.90
30206;DHT22;17010;51.306;3.150;2023-03-13T06:42:19;12.50;99.90
30206;DHT22;17010;51.306;3.150;2023-03-13T06:44:47;12.60;99.90
30206;DHT22;17010;51.306;3.150;2023-03-13T06:47:13;12.60;99.90
30206;DHT22;17010;51.306;3.150;2023-03-13T06:49:39;12.60;99.90
30206;DHT22;17010;51.306;3.150;2023-03-13T06:52:05;12.50;99.90
30206;DHT22;17010;51.306;3.150;2023-03-13T06:54:31;12.60;99.90
30206;DHT22;17010;51.306;3.150;2023-03-13T06:56:57;12.60;99.90
30206;DHT22;17010;51.306;3.150;2023-03-13T06:59:24;12.50;99.90
30206;DHT22;17010;51.306;3.150;2023-03-13T07:01:52;12.50;99.90
30206;DHT22;17010;51.306;3.150;2023-03-13T07:04:19;12.50;99.90
30206;DHT22;17010;51.306;3.150;2023-03-13T07:06:45;12.60;99.90
30206;DHT22;17010;51.306;3.150;2023-03-13T07:09:14;12.60;99.90
30206;DHT22;17010;51.306;3.150;2023-03-13T07:11:45;12.60;99.90
30206;DHT22;17010;51.306;3.150;2023-03-13T07:14:12;12.70;99.90
30206;DHT22;17010;51.306;3.150;2023-03-13T07:16:39;12.70;99.90
30206;DHT22;17010;51.306;3.150;2023-03-13T07:19:05;12.70;99.90
30206;DHT22;17010;51.306;3.150;2023-03-13T07:21:31;12.80;99.90
30206;DHT22;17010;51.306;3.150;2023-03-13T07:24:33;12.90;99.90
30206;DHT22;17010;51.306;3.150;2023-03-13T07:27:03;13.20;99.90
30206;DHT22;17010;51.306;3.150;2023-03-13T07:29:29;13.30;99.90
30206;DHT22;17010;51.306;3.150;2023-03-13T07:31:55;13.30;99.90
30206;DHT22;17010;51.306;3.150;2023-03-13T07:34:21;13.30;99.90
30206;DHT22;17010;51.306;3.150;2023-03-13T07:36:47;13.30;99.90
30206;DHT22;17010;51.306;3.150;2023-03-13T07:39:13;13.20;99.90
30206;DHT22;17010;51.306;3.150;2023-03-13T07:41:40;13.20;99.90
30206;DHT22;17010;51.306;3.150;2023-03-13T07:44:07;13.10;99.90
30206;DHT22;17010;51.306;3.150;2023-03-13T07:46:33;13.20;99.90
30206;DHT22;17010;51.306;3.150;2023-03-13T07:48:59;13.20;99.90
30206;DHT22;17010;51.306;3.150;2023-03-13T07:51:26;13.20;99.90
30206;DHT22;17010;51.306;3.150;2023-03-13T07:53:53;13.30;99.90
30206;DHT22;17010;51.306;3.150;2023-03-13T07:56:20;13.30;99.90
30206;DHT22;17010;51.306;3.150;2023-03-13T07:58:47;13.40;99.90
30206;DHT22;17010;51.306;3.150;2023-03-13T08:01:21;13.40;99.90
30206;DHT22;17010;51.306;3.150;2023-03-13T08:03:48;13.40;99.90
30206;DHT22;17010;51.306;3.150;2023-03-13T08:06:17;13.50;99.90
30206;DHT22;17010;51.306;3.150;2023-03-13T08:08:44;13.70;99.90
30206;DHT22;17010;51.306;3.150;2023-03-13T08:11:13;13.90;99.90
30206;DHT22;17010;51.306;3.150;2023-03-13T08:13:40;13.90;99.90
30206;DHT22;17010;51.306;3.150;2023-03-13T08:18:33;13.80;99.90
30206;DHT22;17010;51.306;3.150;2023-03-13T08:21:06;13.80;99.90
30206;DHT22;17010;51.306;3.150;2023-03-13T08:23:33;13.90;99.90
30206;DHT22;17010;51.306;3.150;2023-03-13T08:26:13;14.10;99.90
30206;DHT22;17010;51.306;3.150;2023-03-13T08:28:40;14.20;99.90
30206;DHT22;17010;51.306;3.150;2023-03-13T08:31:08;14.30;99.90
30206;DHT22;17010;51.306;3.150;2023-03-13T08:33:35;14.30;99.90
30206;DHT22;17010;51.306;3.150;2023-03-13T08:38:42;14.40;99.90
30206;DHT22;17010;51.306;3.150;2023-03-13T08:41:14;14.60;99.90
30206;DHT22;17010;51.306;3.150;2023-03-13T08:43:41;14.60;99.90
30206;DHT22;17010;51.306;3.150;2023-03-13T08:46:07;14.60;99.90
30206;DHT22;17010;51.306;3.150;2023-03-13T08:48:34;14.60;99.90
30206;DHT22;17010;51.306;3.150;2023-03-13T08:51:05;14.70;99.90
30206;DHT22;17010;51.306;3.150;2023-03-13T08:53:32;14.80;99.90
30206;DHT22;17010;51.306;3.150;2023-03-13T08:55:59;14.80;99.90
30206;DHT22;17010;51.306;3.150;2023-03-13T08:58:25;14.70;99.90
30206;DHT22;17010;51.306;3.150;2023-03-13T09:00:53;14.60;99.90
30206;DHT22;17010;51.306;3.150;2023-03-13T09:03:21;14.60;99.90
30206;DHT22;17010;51.306;3.150;2023-03-13T09:05:48;14.70;99.90
30206;DHT22;17010;51.306;3.150;2023-03-13T09:08:15;14.60;99.90
30206;DHT22;17010;51.306;3.150;2023-03-13T09:10:41;14.60;99.90
30206;DHT22;17010;51.306;3.150;2023-03-13T09:13:07;14.90;99.90
30206;DHT22;17010;51.306;3.150;2023-03-13T09:15:34;15.00;99.90
30206;DHT22;17010;51.306;3.150;2023-03-13T09:18:00;14.90;99.90
30206;DHT22;17010;51.306;3.150;2023-03-13T09:20:26;14.80;99.90
30206;DHT22;17010;51.306;3.150;2023-03-13T09:22:52;14.70;99.90
30206;DHT22;17010;51.306;3.150;2023-03-13T09:25:18;14.90;99.90
30206;DHT22;17010;51.306;3.150;2023-03-13T09:27:45;15.40;99.90
30206;DHT22;17010;51.306;3.150;2023-03-13T09:30:12;15.90;99.90
30206;DHT22;17010;51.306;3.150;2023-03-13T09:32:38;15.90;99.90
30206;DHT22;17010;51.306;3.150;2023-03-13T09:35:05;15.70;99.90
30206;DHT22;17010;51.306;3.150;2023-03-13T09:37:32;15.50;99.90
30206;DHT22;17010;51.306;3.150;2023-03-13T09:40:01;15.30;99.90
30206;DHT22;17010;51.306;3.150;2023-03-13T09:42:43;15.30;99.90
30206;DHT22;17010;51.306;3.150;2023-03-13T09:45:35;15.20;99.90
30206;DHT22;17010;51.306;3.150;2023-03-13T09:51:22;15.50;99.90
30206;DHT22;17010;51.306;3.150;2023-03-13T09:56:26;16.40;99.90
30206;DHT22;17010;51.306;3.150;2023-03-13T10:01:41;16.20;99.90
30206;DHT22;17010;51.306;3.150;2023-03-13T10:06:40;15.60;99.90
30206;DHT22;17010;51.306;3.150;2023-03-13T10:09:19;15.40;99.90
30206;DHT22;17010;51.306;3.150;2023-03-13T10:11:55;15.30;99.90
30206;DHT22;17010;51.306;3.150;2023-03-13T10:14:35;15.30;99.90
30206;DHT22;17010;51.306;3.150;2023-03-13T10:19:58;16.30;99.90
30206;DHT22;17010;51.306;3.150;2023-03-13T10:22:26;16.50;99.90
30206;DHT22;17010;51.306;3.150;2023-03-13T10:25:31;16.30;99.90
30206;DHT22;17010;51.306;3.150;2023-03-13T10:27:55;16.10;99.90
30206;DHT22;17010;51.306;3.150;2023-03-13T10:30:29;15.90;99.90
30206;DHT22;17010;51.306;3.150;2023-03-13T10:33:21;15.80;99.90
30206;DHT22;17010;51.306;3.150;2023-03-13T10:35:48;16.10;99.90
30206;DHT22;17010;51.306;3.150;2023-03-13T10:38:24;16.50;99.90
30206;DHT22;17010;51.306;3.150;2023-03-13T10:40:59;16.90;99.90
30206;DHT22;17010;51.306;3.150;2023-03-13T10:43:27;17.20;99.90
30206;DHT22;17010;51.306;3.150;2023-03-13T10:45:54;17.40;99.90
30206;DHT22;17010;51.306;3.150;2023-03-13T10:48:22;17.30;99.90
30206;DHT22;17010;51.306;3.150;2023-03-13T10:50:52;17.30;99.90
30206;DHT22;17010;51.306;3.150;2023-03-13T10:55:48;17.40;99.90
30206;DHT22;17010;51.306;3.150;2023-03-13T10:58:21;17.60;99.90
30206;DHT22;17010;51.306;3.150;2023-03-13T11:00:48;17.50;99.90
30206;DHT22;17010;51.306;3.150;2023-03-13T11:03:18;17.60;99.90
30206;DHT22;17010;51.306;3.150;2023-03-13T11:06:00;17.90;99.90
30206;DHT22;17010;51.306;3.150;2023-03-13T11:08:28;17.70;99.90
30206;DHT22;17010;51.306;3.150;2023-03-13T11:11:03;17.50;99.90
30206;DHT22;17010;51.306;3.150;2023-03-13T11:13:39;17.10;99.90
30206;DHT22;17010;51.306;3.150;2023-03-13T11:16:29;17.10;99.90
30206;DHT22;17010;51.306;3.150;2023-03-13T11:22:06;17.60;99.90
30206;DHT22;17010;51.306;3.150;2023-03-13T11:33:00;16.60;99.90
30206;DHT22;17010;51.306;3.150;2023-03-13T11:38:48;16.20;99.90
30206;DHT22;17010;51.306;3.150;2023-03-13T11:44:02;16.40;99.90
30206;DHT22;17010;51.306;3.150;2023-03-13T11:54:51;15.90;99.90
30206;DHT22;17010;51.306;3.150;2023-03-13T11:57:43;15.70;99.90
30206;DHT22;17010;51.306;3.150;2023-03-13T12:00:28;15.80;99.90
30206;DHT22;17010;51.306;3.150;2023-03-13T12:02:58;15.90;99.90
30206;DHT22;17010;51.306;3.150;2023-03-13T12:05:33;16.20;99.90
30206;DHT22;17010;51.306;3.150;2023-03-13T12:08:05;16.50;99.90
30206;DHT22;17010;51.306;3.150;2023-03-13T12:10:46;16.50;99.90
30206;DHT22;17010;51.306;3.150;2023-03-13T12:13:24;16.40;99.90
30206;DHT22;17010;51.306;3.150;2023-03-13T12:15:55;16.30;99.90
30206;DHT22;17010;51.306;3.150;2023-03-13T12:18:56;16.30;99.90
30206;DHT22;17010;51.306;3.150;2023-03-13T12:23:47;16.50;99.90
30206;DHT22;17010;51.306;3.150;2023-03-13T12:26:15;16.50;99.90
30206;DHT22;17010;51.306;3.150;2023-03-13T12:28:43;16.50;99.90
30206;DHT22;17010;51.306;3.150;2023-03-13T12:34:03;16.60;99.90
30206;DHT22;17010;51.306;3.150;2023-03-13T12:44:42;16.20;99.90
30206;DHT22;17010;51.306;3.150;2023-03-13T12:52:13;16.10;99.90
30206;DHT22;17010;51.306;3.150;2023-03-13T12:54:51;15.90;99.90
30206;DHT22;17010;51.306;3.150;2023-03-13T12:59:54;15.90;99.90
30206;DHT22;17010;51.306;3.150;2023-03-13T13:02:22;16.00;99.90
30206;DHT22;17010;51.306;3.150;2023-03-13T13:04:49;16.30;99.90
30206;DHT22;17010;51.306;3.150;2023-03-13T13:07:22;16.40;99.90
30206;DHT22;17010;51.306;3.150;2023-03-13T13:12:27;16.50;99.90
30206;DHT22;17010;51.306;3.150;2023-03-13T13:14:54;16.60;99.90
30206;DHT22;17010;51.306;3.150;2023-03-13T13:19:54;16.70;99.90
30206;DHT22;17010;51.306;3.150;2023-03-13T13:32:30;16.90;99.90
30206;DHT22;17010;51.306;3.150;2023-03-13T13:37:42;16.80;99.90
30206;DHT22;17010;51.306;3.150;2023-03-13T13:40:15;16.80;99.90
30206;DHT22;17010;51.306;3.150;2023-03-13T13:42:48;16.80;99.90
30206;DHT22;17010;51.306;3.150;2023-03-13T13:47:43;16.60;99.90
30206;DHT22;17010;51.306;3.150;2023-03-13T13:52:42;16.50;99.90
30206;DHT22;17010;51.306;3.150;2023-03-13T13:57:47;16.40;99.90
30206;DHT22;17010;51.306;3.150;2023-03-13T14:00:17;16.40;99.90
30206;DHT22;17010;51.306;3.150;2023-03-13T14:02:50;16.40;99.90
30206;DHT22;17010;51.306;3.150;2023-03-13T14:05:31;16.40;99.90
30206;DHT22;17010;51.306;3.150;2023-03-13T14:08:12;16.30;99.90
30206;DHT22;17010;51.306;3.150;2023-03-13T14:13:15;16.30;99.90
30206;DHT22;17010;51.306;3.150;2023-03-13T14:15:42;16.20;99.90
30206;DHT22;17010;51.306;3.150;2023-03-13T14:20:39;16.20;99.90
30206;DHT22;17010;51.306;3.150;2023-03-13T14:23:15;16.20;99.90
30206;DHT22;17010;51.306;3.150;2023-03-13T14:25:53;16.20;99.90
30206;DHT22;17010;51.306;3.150;2023-03-13T14:28:20;16.20;99.90
30206;DHT22;17010;51.306;3.150;2023-03-13T14:30:47;16.10;99.90
30206;DHT22;17010;51.306;3.150;2023-03-13T14:33:13;16.10;99.90
30206;DHT22;17010;51.306;3.150;2023-03-13T14:35:39;16.10;99.90
30206;DHT22;17010;51.306;3.150;2023-03-13T14:38:06;16.10;99.90
30206;DHT22;17010;51.306;3.150;2023-03-13T14:40:35;16.10;99.90
30206;DHT22;17010;51.306;3.150;2023-03-13T14:43:02;16.10;99.90
30206;DHT22;17010;51.306;3.150;2023-03-13T14:45:29;16.10;99.90
30206;DHT22;17010;51.306;3.150;2023-03-13T14:48:10;16.10;99.90
30206;DHT22;17010;51.306;3.150;2023-03-13T14:50:38;16.10;99.90
30206;DHT22;17010;51.306;3.150;2023-03-13T14:53:09;16.00;99.90
30206;DHT22;17010;51.306;3.150;2023-03-13T14:55:36;16.00;99.90
30206;DHT22;17010;51.306;3.150;2023-03-13T15:00:43;16.00;99.90
30206;DHT22;17010;51.306;3.150;2023-03-13T15:05:47;16.00;99.90
30206;DHT22;17010;51.306;3.150;2023-03-13T15:08:15;16.00;99.90
30206;DHT22;17010;51.306;3.150;2023-03-13T15:10:41;15.90;99.90
30206;DHT22;17010;51.306;3.150;2023-03-13T15:15:40;15.80;99.90
30206;DHT22;17010;51.306;3.150;2023-03-13T15:18:19;15.80;99.90
30206;DHT22;17010;51.306;3.150;2023-03-13T15:20:49;15.70;99.90
30206;DHT22;17010;51.306;3.150;2023-03-13T15:23:16;15.70;99.90
30206;DHT22;17010;51.306;3.150;2023-03-13T15:25:42;15.70;99.90
30206;DHT22;17010;51.306;3.150;2023-03-13T15:28:12;15.70;99.90
30206;DHT22;17010;51.306;3.150;2023-03-13T15:30:40;15.70;99.90
30206;DHT22;17010;51.306;3.150;2023-03-13T15:33:09;15.70;99.90
30206;DHT22;17010;51.306;3.150;2023-03-13T15:35:35;15.60;99.90
30206;DHT22;17010;51.306;3.150;2023-03-13T15:38:01;15.60;99.90
30206;DHT22;17010;51.306;3.150;2023-03-13T15:40:28;15.50;99.90
30206;DHT22;17010;51.306;3.150;2023-03-13T15:42:55;15.50;99.90
30206;DHT22;17010;51.306;3.150;2023-03-13T15:45:22;15.50;99.90
30206;DHT22;17010;51.306;3.150;2023-03-13T15:47:49;15.50;99.90
30206;DHT22;17010;51.306;3.150;2023-03-13T15:50:16;15.50;99.90
30206;DHT22;17010;51.306;3.150;2023-03-13T15:52:43;15.50;99.90
30206;DHT22;17010;51.306;3.150;2023-03-13T15:55:09;15.60;99.90
30206;DHT22;17010;51.306;3.150;2023-03-13T15:57:36;15.50;99.90
30206;DHT22;17010;51.306;3.150;2023-03-13T16:00:11;15.40;99.90
30206;DHT22;17010;51.306;3.150;2023-03-13T16:02:38;15.20;99.90
30206;DHT22;17010;51.306;3.150;2023-03-13T16:05:04;15.10;99.90
30206;DHT22;17010;51.306;3.150;2023-03-13T16:07:30;14.90;99.90
30206;DHT22;17010;51.306;3.150;2023-03-13T16:09:56;14.80;99.90
30206;DHT22;17010;51.306;3.150;2023-03-13T16:12:22;14.80;99.90
30206;DHT22;17010;51.306;3.150;2023-03-13T16:14:48;14.80;99.90
30206;DHT22;17010;51.306;3.150;2023-03-13T16:17:15;14.70;99.90
30206;DHT22;17010;51.306;3.150;2023-03-13T16:19:41;14.60;99.90
30206;DHT22;17010;51.306;3.150;2023-03-13T16:22:08;14.60;99.90
30206;DHT22;17010;51.306;3.150;2023-03-13T16:24:34;14.50;99.90
30206;DHT22;17010;51.306;3.150;2023-03-13T16:27:00;14.40;99.90
30206;DHT22;17010;51.306;3.150;2023-03-13T16:29:26;14.40;99.90
30206;DHT22;17010;51.306;3.150;2023-03-13T16:31:52;14.50;99.90
30206;DHT22;17010;51.306;3.150;2023-03-13T16:34:18;14.50;99.90
30206;DHT22;17010;51.306;3.150;2023-03-13T16:36:44;14.50;99.90
30206;DHT22;17010;51.306;3.150;2023-03-13T16:39:10;14.50;99.90
30206;DHT22;17010;51.306;3.150;2023-03-13T16:41:38;14.50;99.90
30206;DHT22;17010;51.306;3.150;2023-03-13T16:44:04;14.40;99.90
30206;DHT22;17010;51.306;3.150;2023-03-13T16:46:37;14.40;99.90
30206;DHT22;17010;51.306;3.150;2023-03-13T16:49:05;14.40;99.90
30206;DHT22;17010;51.306;3.150;2023-03-13T16:51:32;14.40;99.90
30206;DHT22;17010;51.306;3.150;2023-03-13T17:19:56;14.00;99.90
30206;DHT22;17010;51.306;3.150;2023-03-13T17:22:22;14.00;99.90
30206;DHT22;17010;51.306;3.150;2023-03-13T18:23:32;12.60;99.90
30206;DHT22;17010;51.306;3.150;2023-03-13T18:25:59;12.60;99.90
30206;DHT22;17010;51.306;3.150;2023-03-13T18:28:25;12.50;99.90
30206;DHT22;17010;51.306;3.150;2023-03-13T18:33:27;12.40;99.90
30206;DHT22;17010;51.306;3.150;2023-03-13T18:41:05;12.30;99.90
30206;DHT22;17010;51.306;3.150;2023-03-13T18:43:31;12.20;99.90
30206;DHT22;17010;51.306;3.150;2023-03-13T18:45:57;12.20;99.90
30206;DHT22;17010;51.306;3.150;2023-03-13T18:50:59;12.00;99.90
30206;DHT22;17010;51.306;3.150;2023-03-13T18:53:26;11.90;99.90
30206;DHT22;17010;51.306;3.150;2023-03-13T18:55:52;11.90;99.90
30206;DHT22;17010;51.306;3.150;2023-03-13T18:58:18;11.90;99.90
30206;DHT22;17010;51.306;3.150;2023-03-13T19:00:44;11.90;99.90
30206;DHT22;17010;51.306;3.150;2023-03-13T19:03:10;11.80;99.90
30206;DHT22;17010;51.306;3.150;2023-03-13T19:05:37;11.80;99.90